Time;durP1;ratioP1;P1;durP2;ratioP2;P2;SDS_P1;SDS_P2;PMS_P1;PMS_P2;Temp;Humidity;BMP_temperature;BMP_pressure;BME280_temperature;BME280_humidity;BME280_pressure;Samples;Min_cycle;Max_cycle;Signal;HPM_P1;HPM_P2
2023/04/14 00:00:05;;;;;;;;;;;;;;;20.50;37.36;100821.06;5129807;27;19951;-70
2023/04/14 00:02:30;;;;;;;;;;;;;;;20.49;37.69;100824.78;5133865;27;19995;-70
2023/04/14 00:04:55;;;;;;;;;;;;;;;20.47;37.63;100822.25;5129412;27;19925;-71
2023/04/14 00:07:20;;;;;;;;;;;;;;;20.46;37.55;100827.81;5129687;27;19916;-73
2023/04/14 00:09:46;;;;;;;;;;;;;;;20.45;37.41;100820.75;5131302;28;19918;-70
2023/04/14 00:12:11;;;;;;;;;;;;;;;20.42;37.30;100824.63;5131526;27;19924;-70
2023/04/14 00:14:36;;;;;;;;;;;;;;;20.42;37.43;100829.19;5129959;27;19926;-70
2023/04/14 00:17:01;;;;;;;;;;;;;;;20.40;37.56;100823.16;5132234;27;19911;-71
2023/04/14 00:19:26;;;;;;;;;;;;;;;20.38;37.45;100831.41;5132246;27;19912;-70
2023/04/14 00:21:51;;;;;;;;;;;;;;;20.37;37.54;100835.13;5130197;27;19934;-70
2023/04/14 00:24:16;;;;;;;;;;;;;;;20.35;37.40;100826.38;5136647;28;19978;-71
2023/04/14 00:26:42;;;;;;;;;;;;;;;20.33;37.78;100831.13;5131370;28;19989;-72
2023/04/14 00:29:07;;;;;;;;;;;;;;;20.32;37.63;100837.53;5136087;28;19972;-70
2023/04/14 00:31:32;;;;;;;;;;;;;;;20.30;37.69;100831.47;5131263;28;20387;-71
2023/04/14 00:33:57;;;;;;;;;;;;;;;20.29;37.44;100839.75;5129319;28;19912;-70
2023/04/14 00:36:23;;;;;;;;;;;;;;;20.27;37.39;100829.16;5116398;28;19920;-70
2023/04/14 00:38:48;;;;;;;;;;;;;;;20.26;37.45;100840.09;5129580;28;19911;-70
2023/04/14 00:41:13;;;;;;;;;;;;;;;20.24;37.41;100840.28;5128539;28;19912;-70
2023/04/14 00:43:38;;;;;;;;;;;;;;;20.23;37.39;100844.03;5113915;28;19912;-71
2023/04/14 00:46:03;;;;;;;;;;;;;;;20.21;37.46;100846.03;5132932;28;19935;-71
2023/04/14 00:48:28;;;;;;;;;;;;;;;20.19;37.68;100838.13;5133032;28;19916;-71
2023/04/14 00:50:54;;;;;;;;;;;;;;;20.18;37.68;100838.31;5132459;27;20375;-71
2023/04/14 00:53:19;;;;;;;;;;;;;;;20.16;37.43;100841.19;5131733;28;20300;-70
2023/04/14 00:55:44;;;;;;;;;;;;;;;20.15;37.80;100839.50;5132551;28;19920;-71
2023/04/14 00:58:09;;;;;;;;;;;;;;;20.13;37.35;100841.53;5124562;28;19972;-71
2023/04/14 01:00:35;;;;;;;;;;;;;;;20.12;37.43;100844.41;5129708;28;19971;-70
2023/04/14 01:03:00;;;;;;;;;;;;;;;20.11;37.57;100850.84;5111863;28;19919;-69
2023/04/14 01:05:25;;;;;;;;;;;;;;;20.10;37.65;100849.16;5127661;28;19938;-71
2023/04/14 01:07:50;;;;;;;;;;;;;;;20.07;37.77;100853.06;5130371;28;19912;-71
2023/04/14 01:10:15;;;;;;;;;;;;;;;20.06;37.48;100854.06;5129628;28;19919;-71
2023/04/14 01:12:59;;;;;;;;;;;;;;;20.05;37.66;100854.22;5134759;27;19923;-71
2023/04/14 01:15:25;;;;;;;;;;;;;;;20.02;37.54;100860.84;5132146;27;19912;-71
2023/04/14 01:17:56;;;;;;;;;;;;;;;20.01;37.71;100864.56;5138227;27;20026;-71
2023/04/14 01:20:38;;;;;;;;;;;;;;;19.98;37.74;100863.06;5134039;27;19916;-71
2023/04/14 01:23:07;;;;;;;;;;;;;;;19.98;37.66;100860.34;5139611;27;19915;-71
2023/04/14 01:25:51;;;;;;;;;;;;;;;19.96;37.79;100859.72;5128201;27;19919;-71
2023/04/14 01:28:22;;;;;;;;;;;;;;;19.94;37.75;100869.81;5132516;27;19965;-71
2023/04/14 01:30:56;;;;;;;;;;;;;;;19.93;37.67;100865.44;5136437;27;19911;-71
2023/04/14 01:33:21;;;;;;;;;;;;;;;19.91;37.91;100869.31;5133330;27;19993;-71
2023/04/14 01:35:54;;;;;;;;;;;;;;;19.89;37.67;100868.69;5111791;27;19912;-70
2023/04/14 01:38:24;;;;;;;;;;;;;;;19.88;37.71;100867.84;5113973;27;19912;-71
2023/04/14 01:40:49;;;;;;;;;;;;;;;19.88;37.68;100869.66;5116519;27;19912;-70
2023/04/14 01:43:14;;;;;;;;;;;;;;;19.86;37.96;100875.25;5137430;27;19915;-71
2023/04/14 01:45:43;;;;;;;;;;;;;;;19.85;37.75;100878.13;5138564;27;19916;-71
2023/04/14 01:48:08;;;;;;;;;;;;;;;19.83;37.98;100878.28;5132892;27;20040;-71
2023/04/14 01:50:34;;;;;;;;;;;;;;;19.81;37.97;100876.81;5140604;27;19911;-71
2023/04/14 01:52:59;;;;;;;;;;;;;;;19.80;37.79;100884.06;5118644;27;19974;-71
2023/04/14 01:55:25;;;;;;;;;;;;;;;19.79;37.80;100885.06;5126412;27;19911;-71
2023/04/14 01:57:50;;;;;;;;;;;;;;;19.78;37.88;100883.38;5116631;27;19926;-71
2023/04/14 02:00:16;;;;;;;;;;;;;;;19.77;37.78;100888.97;5122277;27;19916;-71
2023/04/14 02:02:41;;;;;;;;;;;;;;;19.75;37.88;100885.59;5113550;28;19915;-71
2023/04/14 02:05:07;;;;;;;;;;;;;;;19.73;38.06;100881.22;5115177;27;19915;-71
2023/04/14 02:07:32;;;;;;;;;;;;;;;19.72;38.16;100892.19;5114325;28;19916;-71
2023/04/14 02:09:57;;;;;;;;;;;;;;;19.70;37.86;100888.81;5116156;27;19916;-70
2023/04/14 02:12:22;;;;;;;;;;;;;;;19.69;37.83;100887.13;5114695;28;20002;-71
2023/04/14 02:14:47;;;;;;;;;;;;;;;19.67;38.08;100892.72;5112147;28;20444;-70
2023/04/14 02:17:13;;;;;;;;;;;;;;;19.66;38.06;100884.78;5112559;28;19912;-70
2023/04/14 02:19:38;;;;;;;;;;;;;;;19.65;38.06;100881.25;5117949;28;19913;-71
2023/04/14 02:22:03;;;;;;;;;;;;;;;19.64;38.13;100884.13;5110320;28;19912;-70
2023/04/14 02:24:29;;;;;;;;;;;;;;;19.62;38.11;100894.22;5114513;28;20601;-71
2023/04/14 02:26:58;;;;;;;;;;;;;;;19.60;38.07;100897.06;5111733;28;19927;-70
2023/04/14 02:29:24;;;;;;;;;;;;;;;19.59;38.07;100895.41;5111406;28;19977;-68
2023/04/14 02:31:51;;;;;;;;;;;;;;;19.58;37.93;100898.25;5112780;28;19912;-70
2023/04/14 02:34:17;;;;;;;;;;;;;;;19.57;38.10;100912.75;5110567;28;20392;-71
2023/04/14 02:36:52;;;;;;;;;;;;;;;19.55;38.15;100902.16;5112080;28;20361;-69
2023/04/14 02:39:22;;;;;;;;;;;;;;;19.55;38.14;100904.84;5112475;28;19915;-70
2023/04/14 02:41:50;;;;;;;;;;;;;;;19.54;38.18;100907.69;5113566;28;20372;-69
2023/04/14 02:44:25;;;;;;;;;;;;;;;19.52;38.09;100910.59;5110923;28;20269;-70
2023/04/14 02:46:52;;;;;;;;;;;;;;;19.51;38.30;100905.38;5118398;28;19912;-68
2023/04/14 02:49:18;;;;;;;;;;;;;;;19.48;37.94;100907.38;5110055;27;19915;-71
2023/04/14 02:51:43;;;;;;;;;;;;;;;19.48;37.92;100903.84;5118222;28;19933;-69
2023/04/14 02:54:08;;;;;;;;;;;;;;;19.46;38.32;100903.19;5112098;28;19916;-70
2023/04/14 02:56:33;;;;;;;;;;;;;;;19.45;38.07;100909.56;5113004;28;19980;-70
2023/04/14 02:58:58;;;;;;;;;;;;;;;19.44;38.08;100907.91;5113243;28;19912;-70
2023/04/14 03:01:23;;;;;;;;;;;;;;;19.43;38.17;100903.53;5111381;28;19916;-71
2023/04/14 03:03:49;;;;;;;;;;;;;;;19.42;38.04;100913.47;5107963;28;19919;-70
2023/04/14 03:06:17;;;;;;;;;;;;;;;19.41;38.17;100917.19;5110833;28;19963;-70
2023/04/14 03:08:42;;;;;;;;;;;;;;;19.40;38.23;100911.94;5111758;28;19916;-70
2023/04/14 03:11:07;;;;;;;;;;;;;;;19.40;38.09;100911.94;5109451;28;20391;-70
2023/04/14 03:13:33;;;;;;;;;;;;;;;19.39;37.93;100915.66;5134966;27;19998;-70
2023/04/14 03:15:58;;;;;;;;;;;;;;;19.38;38.38;100912.13;5132248;27;19919;-70
2023/04/14 03:18:24;;;;;;;;;;;;;;;19.38;38.24;100911.31;5136096;27;19964;-70
2023/04/14 03:20:50;;;;;;;;;;;;;;;19.37;37.96;100904.19;5134510;27;19919;-70
2023/04/14 03:23:17;;;;;;;;;;;;;;;19.37;38.25;100910.47;5130417;27;19978;-70
2023/04/14 03:25:43;;;;;;;;;;;;;;;19.35;37.91;100903.53;5133760;27;19916;-71
2023/04/14 03:28:09;;;;;;;;;;;;;;;19.34;37.99;100905.41;5127700;27;19937;-70
2023/04/14 03:30:34;;;;;;;;;;;;;;;19.35;38.24;100912.47;5129952;27;19946;-71
2023/04/14 03:33:05;;;;;;;;;;;;;;;19.35;38.14;100908.94;5127158;27;19916;-71
2023/04/14 03:35:30;;;;;;;;;;;;;;;19.36;38.14;100924.09;5114735;27;19919;-70
2023/04/14 03:37:58;;;;;;;;;;;;;;;19.35;38.25;100915.16;5130096;27;19916;-70
2023/04/14 03:40:29;;;;;;;;;;;;;;;19.37;38.17;100925.78;5116903;27;19919;-71
2023/04/14 03:42:57;;;;;;;;;;;;;;;19.36;37.99;100921.41;5133341;27;19912;-70
2023/04/14 03:45:22;;;;;;;;;;;;;;;19.36;37.98;100924.94;5136595;27;19922;-70
2023/04/14 03:47:47;;;;;;;;;;;;;;;19.36;38.00;100926.78;5135171;27;19915;-70
2023/04/14 03:50:14;;;;;;;;;;;;;;;19.37;38.13;100925.78;5136756;27;19919;-70
2023/04/14 03:52:39;;;;;;;;;;;;;;;19.37;37.98;100928.47;5114217;27;19954;-70
2023/04/14 03:55:05;;;;;;;;;;;;;;;19.38;38.01;100924.78;5111003;28;19920;-70
2023/04/14 03:57:30;;;;;;;;;;;;;;;19.38;37.96;100927.47;5112346;28;19916;-70
2023/04/14 03:59:56;;;;;;;;;;;;;;;19.38;38.03;100928.31;5131631;27;19927;-70
2023/04/14 04:02:21;;;;;;;;;;;;;;;19.38;38.05;100925.63;5139084;27;19911;-70
2023/04/14 04:04:46;;;;;;;;;;;;;;;19.38;37.83;100925.63;5124089;27;20265;-70
2023/04/14 04:07:11;;;;;;;;;;;;;;;19.39;37.70;100934.53;5114291;27;20502;-70
2023/04/14 04:09:37;;;;;;;;;;;;;;;19.40;38.10;100933.53;5114638;27;19911;-70
2023/04/14 04:12:02;;;;;;;;;;;;;;;19.39;37.99;100927.28;5111654;27;19930;-68
2023/04/14 04:14:28;;;;;;;;;;;;;;;19.40;37.99;100928.13;5119333;28;19924;-69
2023/04/14 04:16:54;;;;;;;;;;;;;;;19.40;37.86;100928.97;5125286;27;19988;-69
2023/04/14 04:19:20;;;;;;;;;;;;;;;19.41;37.84;100935.19;5131721;27;19921;-69
2023/04/14 04:21:46;;;;;;;;;;;;;;;19.41;37.95;100941.47;5113957;28;19918;-70
2023/04/14 04:24:11;;;;;;;;;;;;;;;19.42;37.75;100937.75;5123237;28;19919;-71
2023/04/14 04:26:36;;;;;;;;;;;;;;;19.43;38.21;100941.28;5112497;28;19991;-71
2023/04/14 04:29:02;;;;;;;;;;;;;;;19.43;38.04;100942.13;5128084;28;20503;-70
2023/04/14 04:31:27;;;;;;;;;;;;;;;19.44;37.90;100938.41;5114749;28;19927;-70
2023/04/14 04:33:52;;;;;;;;;;;;;;;19.46;38.20;100951.72;5129699;28;20000;-71
2023/04/14 04:36:18;;;;;;;;;;;;;;;19.48;38.15;100947.00;5112476;28;19916;-71
2023/04/14 04:38:43;;;;;;;;;;;;;;;19.47;37.93;100940.75;5131305;28;20364;-71
2023/04/14 04:41:40;;;;;;;;;;;;;;;19.49;38.14;100943.28;5115216;28;19912;-69
2023/04/14 04:44:06;;;;;;;;;;;;;;;19.52;38.23;100940.25;5079673;28;19911;-71
2023/04/14 04:46:50;;;;;;;;;;;;;;;19.53;38.58;100946.47;5136697;27;19998;-70
2023/04/14 04:49:15;;;;;;;;;;;;;;;19.55;38.75;100950.69;5134893;27;19930;-71
2023/04/14 04:51:40;;;;;;;;;;;;;;;19.57;38.67;100958.59;5120623;27;19978;-69
2023/04/14 04:54:05;;;;;;;;;;;;;;;19.58;38.53;100954.88;5115900;28;20332;-69
2023/04/14 04:56:31;;;;;;;;;;;;;;;19.61;38.44;100950.03;5133312;27;19916;-68
2023/04/14 04:58:57;;;;;;;;;;;;;;;19.62;38.67;100961.66;5133300;27;19949;-68
2023/04/14 05:01:23;;;;;;;;;;;;;;;19.63;38.57;100953.41;5134138;27;19950;-68
2023/04/14 05:03:48;;;;;;;;;;;;;;;19.65;38.66;100956.75;5131094;27;19911;-68
2023/04/14 05:06:13;;;;;;;;;;;;;;;19.67;38.55;100949.34;5133942;27;19916;-69
2023/04/14 05:08:38;;;;;;;;;;;;;;;19.68;38.81;100945.63;5137825;27;19965;-70
2023/04/14 05:11:04;;;;;;;;;;;;;;;19.69;38.74;100950.00;5137377;27;19919;-70
2023/04/14 05:13:29;;;;;;;;;;;;;;;19.72;38.35;100956.94;5136039;27;20518;-70
2023/04/14 05:16:02;;;;;;;;;;;;;;;19.72;38.50;100949.66;5131465;27;19963;-74
2023/04/14 05:18:27;;;;;;;;;;;;;;;19.74;38.57;100941.41;5134317;27;19988;-68
2023/04/14 05:20:52;;;;;;;;;;;;;;;19.76;38.45;100952.03;5135119;27;20291;-70
2023/04/14 05:23:17;;;;;;;;;;;;;;;19.77;38.31;100949.16;5132862;27;20552;-70
2023/04/14 05:25:42;;;;;;;;;;;;;;;19.77;38.06;100943.75;5131662;27;19915;-71
2023/04/14 05:28:08;;;;;;;;;;;;;;;19.78;38.26;100953.53;5134829;27;19930;-72
2023/04/14 05:30:33;;;;;;;;;;;;;;;19.79;38.23;100951.66;5134373;27;19922;-70
2023/04/14 05:32:58;;;;;;;;;;;;;;;19.80;38.51;100958.78;5135850;27;20295;-71
2023/04/14 05:35:24;;;;;;;;;;;;;;;19.81;38.33;100961.28;5131334;27;19947;-71
2023/04/14 05:37:49;;;;;;;;;;;;;;;19.83;38.49;100963.78;5135488;27;19916;-72
2023/04/14 05:40:14;;;;;;;;;;;;;;;19.83;38.48;100964.63;5137812;27;19923;-71
2023/04/14 05:42:40;;;;;;;;;;;;;;;19.84;38.19;100966.34;5132662;27;19912;-71
2023/04/14 05:45:06;;;;;;;;;;;;;;;19.86;38.53;100963.47;5134677;27;20024;-70
2023/04/14 05:47:31;;;;;;;;;;;;;;;19.87;38.32;100967.84;5131816;27;19915;-71
2023/04/14 05:49:57;;;;;;;;;;;;;;;19.87;38.31;100963.28;5134033;27;19986;-70
2023/04/14 05:52:22;;;;;;;;;;;;;;;19.89;38.20;100963.13;5132929;27;19923;-69
2023/04/14 05:54:47;;;;;;;;;;;;;;;19.90;38.21;100967.50;5131140;27;20729;-70
2023/04/14 05:57:12;;;;;;;;;;;;;;;19.91;38.00;100970.00;5129767;27;19919;-69
2023/04/14 05:59:37;;;;;;;;;;;;;;;19.91;38.18;100972.69;5133852;27;19989;-69
2023/04/14 06:02:05;;;;;;;;;;;;;;;19.94;38.06;100969.66;5134909;27;19915;-69
2023/04/14 06:04:31;;;;;;;;;;;;;;;19.94;37.98;100958.88;5134036;27;19944;-69
2023/04/14 06:06:57;;;;;;;;;;;;;;;19.96;38.23;100958.69;5136466;27;19975;-70
2023/04/14 06:09:22;;;;;;;;;;;;;;;19.97;38.13;100961.22;5134992;27;19911;-69
2023/04/14 06:11:48;;;;;;;;;;;;;;;19.98;38.13;100957.50;5134759;27;20066;-69
2023/04/14 06:14:13;;;;;;;;;;;;;;;20.00;38.13;100962.72;5136785;27;19944;-73
2023/04/14 06:16:38;;;;;;;;;;;;;;;20.03;38.00;100961.53;5132155;27;19911;-73
2023/04/14 06:19:03;;;;;;;;;;;;;;;20.04;38.01;100961.34;5118479;27;19942;-72
2023/04/14 06:21:28;;;;;;;;;;;;;;;20.05;37.94;100957.66;5133301;27;19935;-72
2023/04/14 06:23:54;;;;;;;;;;;;;;;20.06;38.15;100959.34;5132891;27;19937;-72
2023/04/14 06:26:19;;;;;;;;;;;;;;;20.07;38.13;100950.22;5129434;27;19954;-72
2023/04/14 06:28:45;;;;;;;;;;;;;;;20.09;37.72;100953.59;5131098;27;20283;-72
2023/04/14 06:31:13;;;;;;;;;;;;;;;20.10;37.80;100957.13;5137639;27;19911;-73
2023/04/14 06:33:38;;;;;;;;;;;;;;;20.11;37.45;100953.41;5131604;27;19944;-73
2023/04/14 06:36:03;;;;;;;;;;;;;;;20.10;37.50;100952.56;5138723;27;19978;-73
2023/04/14 06:38:28;;;;;;;;;;;;;;;20.11;37.42;100950.72;5133309;27;19911;-72
2023/04/14 06:40:53;;;;;;;;;;;;;;;20.12;37.57;100950.53;5131897;27;19919;-70
2023/04/14 06:43:18;;;;;;;;;;;;;;;20.13;37.47;100962.16;5136054;27;20296;-72
2023/04/14 06:45:44;;;;;;;;;;;;;;;20.14;37.43;100961.16;5113609;27;19923;-72
2023/04/14 06:48:11;;;;;;;;;;;;;;;20.15;37.06;100954.75;5130014;27;19987;-74
2023/04/14 06:50:36;;;;;;;;;;;;;;;20.16;37.25;100957.25;5136795;27;19911;-70
2023/04/14 06:53:01;;;;;;;;;;;;;;;20.18;37.45;100951.69;5128627;27;19938;-73
2023/04/14 06:55:27;;;;;;;;;;;;;;;20.19;37.63;100942.59;5131357;27;19947;-74
2023/04/14 06:57:52;;;;;;;;;;;;;;;20.21;37.48;100940.53;5115248;27;19920;-72
2023/04/14 07:00:17;;;;;;;;;;;;;;;20.23;37.60;100949.31;5131876;27;20296;-71
2023/04/14 07:02:42;;;;;;;;;;;;;;;20.26;37.69;100948.94;5138202;27;19922;-71
2023/04/14 07:05:07;;;;;;;;;;;;;;;20.30;37.68;100944.03;5125095;27;19933;-72
2023/04/14 07:07:33;;;;;;;;;;;;;;;20.34;37.48;100939.97;5133140;27;19978;-70
2023/04/14 07:09:58;;;;;;;;;;;;;;;20.42;37.36;100948.00;5132040;27;19919;-70
2023/04/14 07:12:24;;;;;;;;;;;;;;;20.49;37.12;100940.94;5130572;27;20494;-71
2023/04/14 07:14:52;;;;;;;;;;;;;;;20.55;37.13;100942.06;5130458;27;19919;-71
2023/04/14 07:17:17;;;;;;;;;;;;;;;20.60;37.16;100939.66;5132034;27;19916;-75
2023/04/14 07:19:42;;;;;;;;;;;;;;;20.62;36.97;100937.63;5131007;27;19967;-74
2023/04/14 07:22:08;;;;;;;;;;;;;;;20.64;36.87;100938.28;5131149;27;19920;-73
2023/04/14 07:24:33;;;;;;;;;;;;;;;20.64;36.81;100932.88;5131128;27;20398;-73
2023/04/14 07:26:58;;;;;;;;;;;;;;;20.64;36.79;100936.41;5130877;27;19974;-70
2023/04/14 07:29:24;;;;;;;;;;;;;;;20.65;37.09;100940.00;5131429;27;19940;-75
2023/04/14 07:31:49;;;;;;;;;;;;;;;20.63;36.99;100932.03;5124799;27;20497;-74
2023/04/14 07:34:15;;;;;;;;;;;;;;;20.65;37.22;100940.00;5128861;27;19953;-75
2023/04/14 07:36:40;;;;;;;;;;;;;;;20.64;36.98;100941.81;5136626;27;19923;-75
2023/04/14 07:39:05;;;;;;;;;;;;;;;20.65;37.03;100940.81;5130790;27;20513;-74
2023/04/14 07:41:31;;;;;;;;;;;;;;;20.65;37.20;100929.19;5129798;27;19941;-75
2023/04/14 07:43:57;;;;;;;;;;;;;;;20.65;36.95;100931.88;5135243;27;19911;-75
2023/04/14 07:46:23;;;;;;;;;;;;;;;20.66;36.89;100936.25;5129937;27;19915;-73
2023/04/14 07:48:48;;;;;;;;;;;;;;;20.67;36.87;100927.97;5130351;27;19916;-73
2023/04/14 07:51:13;;;;;;;;;;;;;;;20.68;37.09;100931.50;5132538;27;19970;-74
2023/04/14 07:53:42;;;;;;;;;;;;;;;20.69;36.78;100928.63;5132352;27;19916;-74
2023/04/14 07:56:07;;;;;;;;;;;;;;;20.70;36.74;100924.06;5132866;27;19923;-74
2023/04/14 07:58:32;;;;;;;;;;;;;;;20.71;36.73;100926.59;5135458;27;19911;-74
2023/04/14 08:00:58;;;;;;;;;;;;;;;20.72;36.70;100930.97;5130401;27;19927;-74
2023/04/14 08:03:23;;;;;;;;;;;;;;;20.75;36.70;100926.22;5138096;27;19912;-73
2023/04/14 08:05:48;;;;;;;;;;;;;;;20.77;36.79;100924.19;5132082;27;19918;-72
2023/04/14 08:08:14;;;;;;;;;;;;;;;20.78;36.77;100926.72;5129585;27;19923;-74
2023/04/14 08:10:40;;;;;;;;;;;;;;;20.78;36.54;100929.41;5132992;27;19961;-74
2023/04/14 08:13:05;;;;;;;;;;;;;;;20.80;36.72;100932.78;5130936;27;19983;-74
2023/04/14 08:15:31;;;;;;;;;;;;;;;20.82;36.46;100932.59;5129317;27;19915;-74
2023/04/14 08:17:56;;;;;;;;;;;;;;;20.84;36.62;100930.56;5129904;27;19912;-74
2023/04/14 08:20:21;;;;;;;;;;;;;;;20.84;36.31;100927.84;5131989;27;19915;-74
2023/04/14 08:22:47;;;;;;;;;;;;;;;20.86;36.64;100931.22;5130288;27;19916;-74
2023/04/14 08:25:12;;;;;;;;;;;;;;;20.87;36.31;100931.03;5135520;27;19943;-72
2023/04/14 08:27:37;;;;;;;;;;;;;;;20.89;36.28;100930.84;5131577;28;19982;-74
2023/04/14 08:30:03;;;;;;;;;;;;;;;20.91;36.37;100926.94;5121651;28;19915;-74
2023/04/14 08:32:28;;;;;;;;;;;;;;;20.93;36.11;100934.88;5135060;28;19920;-73
2023/04/14 08:34:53;;;;;;;;;;;;;;;20.94;36.08;100921.19;5130321;28;19943;-74
2023/04/14 08:37:21;;;;;;;;;;;;;;;20.95;36.05;100925.56;5113876;28;20666;-73
2023/04/14 08:39:46;;;;;;;;;;;;;;;20.97;36.08;100915.41;5129852;28;20046;-74
2023/04/14 08:42:12;;;;;;;;;;;;;;;20.99;36.09;100923.34;5129042;28;19915;-72
2023/04/14 08:44:37;;;;;;;;;;;;;;;21.01;36.27;100920.44;5130476;27;20384;-74
2023/04/14 08:47:03;;;;;;;;;;;;;;;21.03;36.10;100921.13;5132383;28;19922;-73
2023/04/14 08:49:48;;;;;;;;;;;;;;;21.06;36.28;100918.03;5113185;27;19919;-74
2023/04/14 08:52:14;;;;;;;;;;;;;;;21.08;36.20;100922.25;5132502;28;19915;-73
2023/04/14 08:54:39;;;;;;;;;;;;;;;21.11;36.20;100915.63;5131460;28;20016;-74
2023/04/14 08:57:04;;;;;;;;;;;;;;;21.13;36.20;100924.41;5134517;28;19911;-73
2023/04/14 08:59:30;;;;;;;;;;;;;;;21.15;36.13;100922.34;5136386;28;19937;-74
2023/04/14 09:01:55;;;;;;;;;;;;;;;21.16;35.87;100914.06;5130520;28;19919;-73
2023/04/14 09:04:21;;;;;;;;;;;;;;;21.19;35.87;100921.78;5115115;28;19915;-74
2023/04/14 09:06:46;;;;;;;;;;;;;;;21.21;35.96;100919.75;5129626;28;19912;-73
2023/04/14 09:09:11;;;;;;;;;;;;;;;21.23;35.83;100922.25;5120702;28;19915;-74
2023/04/14 09:11:36;;;;;;;;;;;;;;;21.26;35.64;100915.66;5124674;28;20406;-74
2023/04/14 09:14:01;;;;;;;;;;;;;;;21.29;35.94;100916.13;5113542;28;19919;-74
2023/04/14 09:16:27;;;;;;;;;;;;;;;21.30;35.87;100925.91;5108783;28;19912;-73
2023/04/14 09:18:52;;;;;;;;;;;;;;;21.35;35.90;100917.28;5132156;28;19933;-75
2023/04/14 09:21:17;;;;;;;;;;;;;;;21.36;35.67;100914.38;5132228;28;19919;-74
2023/04/14 09:23:43;;;;;;;;;;;;;;;21.39;35.78;100913.19;5129424;28;19965;-73
2023/04/14 09:26:09;;;;;;;;;;;;;;;21.41;35.57;100908.44;5138027;28;19915;-73
2023/04/14 09:28:35;;;;;;;;;;;;;;;21.44;35.43;100908.06;5123655;28;19933;-72
2023/04/14 09:31:01;;;;;;;;;;;;;;;21.48;35.72;100909.38;5133054;27;19916;-74
2023/04/14 09:33:27;;;;;;;;;;;;;;;21.49;35.67;100913.75;5132791;27;20051;-73
2023/04/14 09:35:52;;;;;;;;;;;;;;;21.53;35.47;100914.22;5114762;27;20374;-74
2023/04/14 09:38:33;;;;;;;;;;;;;;;21.56;35.82;100911.16;5133225;27;19919;-73
2023/04/14 09:40:58;;;;;;;;;;;;;;;21.58;35.70;100907.25;5117246;27;19916;-73
2023/04/14 09:43:25;;;;;;;;;;;;;;;21.61;35.56;100906.00;5131986;27;19912;-74
2023/04/14 09:45:50;;;;;;;;;;;;;;;21.64;35.56;100906.47;5132823;27;19912;-73
2023/04/14 09:48:16;;;;;;;;;;;;;;;21.68;35.59;100902.38;5134091;27;19987;-71
2023/04/14 09:51:00;;;;;;;;;;;;;;;21.73;35.64;100898.28;5135675;27;19919;-72
2023/04/14 09:53:32;;;;;;;;;;;;;;;21.76;35.74;100898.75;5136678;27;19938;-74
2023/04/14 09:56:02;;;;;;;;;;;;;;;21.81;35.75;100909.00;5135409;27;19915;-74
2023/04/14 09:58:34;;;;;;;;;;;;;;;21.84;35.76;100904.06;5119857;27;19966;-71
2023/04/14 10:01:01;;;;;;;;;;;;;;;21.89;35.61;100904.31;5133486;27;19916;-68
2023/04/14 10:03:37;;;;;;;;;;;;;;;21.93;35.66;100905.63;5136255;27;19920;-70
2023/04/14 10:06:18;;;;;;;;;;;;;;;21.99;35.53;100900.47;5132136;27;19932;-70
2023/04/14 10:08:47;;;;;;;;;;;;;;;22.04;35.42;100903.47;5136686;27;19946;-71
2023/04/14 10:11:14;;;;;;;;;;;;;;;22.08;35.27;100899.34;5131883;27;19912;-69
2023/04/14 10:13:39;;;;;;;;;;;;;;;22.10;35.60;100898.13;5132646;27;19920;-71
2023/04/14 10:16:04;;;;;;;;;;;;;;;22.12;35.84;100890.69;5114426;27;20761;-70
2023/04/14 10:18:30;;;;;;;;;;;;;;;22.14;35.90;100893.22;5135565;27;19976;-74
2023/04/14 10:20:55;;;;;;;;;;;;;;;22.13;35.91;100886.97;5138861;27;19911;-74
2023/04/14 10:23:21;;;;;;;;;;;;;;;22.13;35.60;100881.53;5125088;27;19912;-74
2023/04/14 10:25:46;;;;;;;;;;;;;;;22.13;35.83;100875.25;5139568;27;19912;-73
2023/04/14 10:28:11;;;;;;;;;;;;;;;22.15;35.94;100881.34;5131567;27;19943;-74
2023/04/14 10:30:37;;;;;;;;;;;;;;;22.15;36.02;100874.06;5117550;27;19979;-74
2023/04/14 10:33:03;;;;;;;;;;;;;;;22.16;35.91;100870.31;5108520;27;19938;-70
2023/04/14 10:35:29;;;;;;;;;;;;;;;22.18;36.07;100870.13;5113423;27;19920;-72
2023/04/14 10:37:54;;;;;;;;;;;;;;;22.22;35.92;100879.56;5125539;27;19912;-72
2023/04/14 10:40:20;;;;;;;;;;;;;;;22.24;35.92;100874.78;5111994;27;19979;-72
2023/04/14 10:42:52;;;;;;;;;;;;;;;22.26;35.93;100870.03;5134821;27;19915;-73
2023/04/14 10:45:17;;;;;;;;;;;;;;;22.27;36.27;100874.41;5131465;27;19954;-72
2023/04/14 10:47:42;;;;;;;;;;;;;;;22.28;36.04;100867.09;5137636;27;19919;-73
2023/04/14 10:50:12;;;;;;;;;;;;;;;22.28;36.15;100867.09;5127651;27;19933;-73
2023/04/14 10:52:38;;;;;;;;;;;;;;;22.29;35.95;100869.63;5139430;27;19911;-73
2023/04/14 10:55:06;;;;;;;;;;;;;;;22.31;36.11;100874.88;5133484;27;19919;-73
2023/04/14 10:57:35;;;;;;;;;;;;;;;22.29;35.92;100869.63;5128910;27;19969;-73
2023/04/14 11:00:03;;;;;;;;;;;;;;;22.30;36.27;100870.44;5132114;27;19927;-72
2023/04/14 11:02:32;;;;;;;;;;;;;;;22.28;36.22;100872.53;5111803;27;19947;-73
2023/04/14 11:04:57;;;;;;;;;;;;;;;22.29;35.82;100860.66;5132902;27;19939;-73
2023/04/14 11:07:22;;;;;;;;;;;;;;;22.29;35.98;100857.94;5132019;27;19946;-74
2023/04/14 11:09:47;;;;;;;;;;;;;;;22.29;36.06;100861.50;5133923;27;20190;-72
2023/04/14 11:12:23;;;;;;;;;;;;;;;22.28;36.29;100854.41;5130889;27;19923;-73
2023/04/14 11:14:48;;;;;;;;;;;;;;;22.30;36.42;100846.06;5137444;27;19919;-73
2023/04/14 11:17:20;;;;;;;;;;;;;;;22.31;36.24;100855.91;5132394;27;19915;-73
2023/04/14 11:19:46;;;;;;;;;;;;;;;22.33;36.58;100851.94;5136466;27;19919;-72
2023/04/14 11:22:11;;;;;;;;;;;;;;;22.34;36.31;100852.78;5125854;27;19911;-73
2023/04/14 11:24:36;;;;;;;;;;;;;;;22.34;36.58;100852.78;5134468;27;20462;-70
2023/04/14 11:27:01;;;;;;;;;;;;;;;22.35;36.46;100841.78;5116727;27;19923;-74
2023/04/14 11:29:26;;;;;;;;;;;;;;;22.35;36.53;100840.94;5129031;27;19963;-73
2023/04/14 11:31:59;;;;;;;;;;;;;;;22.32;36.57;100844.88;5130308;27;19958;-73
2023/04/14 11:34:24;;;;;;;;;;;;;;;22.34;36.65;100844.66;5130607;27;19926;-72
2023/04/14 11:36:50;;;;;;;;;;;;;;;22.34;36.58;100850.06;5132519;27;19912;-72
2023/04/14 11:39:15;;;;;;;;;;;;;;;22.33;36.90;100840.28;5120262;28;19989;-70
2023/04/14 11:41:41;;;;;;;;;;;;;;;22.31;36.97;100843.19;5131623;27;19916;-73
2023/04/14 11:44:06;;;;;;;;;;;;;;;22.31;37.00;100843.19;5123659;27;19935;-73
2023/04/14 11:46:31;;;;;;;;;;;;;;;22.29;36.82;100830.88;5132458;27;19972;-73
2023/04/14 11:48:56;;;;;;;;;;;;;;;22.28;37.23;100842.75;5137459;27;20657;-73
2023/04/14 11:51:29;;;;;;;;;;;;;;;22.26;37.20;100825.81;5129260;27;20049;-73
2023/04/14 11:53:54;;;;;;;;;;;;;;;22.26;37.16;100823.13;5113673;27;19931;-73
2023/04/14 11:56:20;;;;;;;;;;;;;;;22.24;37.35;100819.78;5128052;27;19919;-74
2023/04/14 11:58:45;;;;;;;;;;;;;;;22.24;37.32;100826.03;5130764;27;19939;-73
2023/04/14 12:01:13;;;;;;;;;;;;;;;22.24;37.35;100822.47;5134236;27;19926;-71
2023/04/14 12:03:38;;;;;;;;;;;;;;;22.24;37.40;100825.19;5099819;27;19916;-73
2023/04/14 12:06:04;;;;;;;;;;;;;;;22.25;37.38;100822.28;5129508;27;19927;-73
2023/04/14 12:08:30;;;;;;;;;;;;;;;22.25;37.39;100821.44;5132627;27;20409;-73
2023/04/14 12:10:56;;;;;;;;;;;;;;;22.27;37.37;100816.69;5132009;27;19919;-73
2023/04/14 12:13:22;;;;;;;;;;;;;;;22.29;37.69;100826.28;5124089;27;19934;-73
2023/04/14 12:15:49;;;;;;;;;;;;;;;22.31;37.71;100828.81;5135458;27;21519;-74
2023/04/14 12:18:14;;;;;;;;;;;;;;;22.31;37.41;100824.22;5129279;28;19923;-73
2023/04/14 12:20:46;;;;;;;;;;;;;;;22.30;37.70;100819.00;5122522;28;19941;-73
2023/04/14 12:23:11;;;;;;;;;;;;;;;22.29;37.85;100818.16;5113907;27;19983;-72
2023/04/14 12:25:36;;;;;;;;;;;;;;;22.29;37.63;100811.91;5113289;28;19927;-73
2023/04/14 12:28:05;;;;;;;;;;;;;;;22.30;37.65;100814.44;5131360;27;19986;-74
2023/04/14 12:30:31;;;;;;;;;;;;;;;22.32;37.63;100817.78;5111436;28;19918;-73